createdAt,value
2023-05-10T00:02:03.897Z,13.57
2023-05-10T00:04:31.000Z,13.57
2023-05-10T00:06:58.146Z,13.50
2023-05-10T00:09:25.338Z,13.51
2023-05-10T00:11:52.399Z,13.55
2023-05-10T00:14:19.777Z,13.46
2023-05-10T00:16:46.951Z,13.38
2023-05-10T00:19:14.010Z,13.43
2023-05-10T00:21:41.168Z,13.48
2023-05-10T00:24:08.341Z,13.48
2023-05-10T00:26:35.644Z,13.48
2023-05-10T00:29:03.376Z,13.46
2023-05-10T00:31:30.862Z,13.50
2023-05-10T00:33:58.326Z,13.55
2023-05-10T00:36:25.428Z,13.43
2023-05-10T00:38:52.575Z,13.41
2023-05-10T00:41:19.794Z,13.37
2023-05-10T00:43:47.658Z,13.47
2023-05-10T00:46:16.252Z,13.47
2023-05-10T00:48:44.295Z,13.35
2023-05-10T00:51:11.349Z,13.41
2023-05-10T00:53:39.029Z,13.44
2023-05-10T00:56:06.446Z,13.47
2023-05-10T00:58:34.179Z,13.47
2023-05-10T01:01:01.450Z,13.39
2023-05-10T01:03:28.907Z,13.41
2023-05-10T01:05:56.181Z,13.39
2023-05-10T01:08:23.341Z,13.47
2023-05-10T01:10:51.037Z,13.53
2023-05-10T01:13:24.474Z,13.53
2023-05-10T01:15:51.721Z,13.50
2023-05-10T01:18:21.111Z,13.42
2023-05-10T01:20:49.877Z,13.33
2023-05-10T01:23:23.143Z,13.38
2023-05-10T01:26:08.420Z,13.41
2023-05-10T01:28:35.539Z,13.40
2023-05-10T01:31:08.486Z,13.34
2023-05-10T01:33:35.577Z,13.35
2023-05-10T01:36:26.975Z,13.42
2023-05-10T01:38:58.013Z,13.38
2023-05-10T01:41:44.780Z,13.27
2023-05-10T01:44:11.824Z,13.30
2023-05-10T01:46:41.880Z,13.19
2023-05-10T01:49:10.132Z,13.16
2023-05-10T01:51:42.781Z,13.15
2023-05-10T01:54:11.814Z,13.12
2023-05-10T01:56:40.380Z,13.23
2023-05-10T01:59:12.002Z,13.17
2023-05-10T02:01:39.837Z,13.22
2023-05-10T02:04:08.385Z,13.20
2023-05-10T02:06:36.557Z,13.02
2023-05-10T02:09:04.033Z,13.08
2023-05-10T02:11:31.827Z,13.10
2023-05-10T02:13:59.610Z,13.18
2023-05-10T02:16:32.006Z,13.16
2023-05-10T02:19:02.456Z,13.13
2023-05-10T02:21:30.640Z,13.03
2023-05-10T02:23:58.882Z,13.12
2023-05-10T02:26:26.957Z,13.06
2023-05-10T02:28:54.056Z,13.05
2023-05-10T02:31:22.991Z,13.06
2023-05-10T02:33:50.133Z,12.99
2023-05-10T02:36:21.026Z,12.96
2023-05-10T02:38:48.990Z,13.05
2023-05-10T02:41:17.216Z,12.96
2023-05-10T02:43:45.286Z,12.97
2023-05-10T02:46:12.491Z,13.02
2023-05-10T02:48:39.665Z,13.00
2023-05-10T02:51:08.171Z,13.00
2023-05-10T02:53:36.633Z,13.07
2023-05-10T02:56:08.039Z,13.04
2023-05-10T02:58:36.918Z,12.99
2023-05-10T03:01:04.168Z,12.97
2023-05-10T03:03:31.233Z,12.93
2023-05-10T03:05:59.482Z,13.01
2023-05-10T03:08:26.983Z,13.07
2023-05-10T03:11:12.854Z,13.10
2023-05-10T03:13:49.946Z,13.05
2023-05-10T03:16:21.073Z,13.06
2023-05-10T03:18:48.108Z,13.00
2023-05-10T03:21:18.777Z,13.08
2023-05-10T03:23:51.368Z,13.13
2023-05-10T03:26:21.575Z,13.06
2023-05-10T03:28:49.688Z,12.99
2023-05-10T03:31:18.048Z,13.05
2023-05-10T03:33:52.320Z,13.03
2023-05-10T03:36:24.602Z,12.95
2023-05-10T03:38:52.238Z,12.88
2023-05-10T03:41:19.287Z,12.96
2023-05-10T03:43:46.487Z,12.95
2023-05-10T03:46:13.612Z,12.90
2023-05-10T03:48:41.082Z,12.87
2023-05-10T03:51:08.185Z,12.96
2023-05-10T03:53:35.322Z,12.90
2023-05-10T03:56:02.407Z,12.91
2023-05-10T03:58:29.558Z,12.85
2023-05-10T04:00:56.907Z,12.86
2023-05-10T04:03:24.182Z,12.73
2023-05-10T04:06:00.729Z,12.76
2023-05-10T04:08:27.955Z,12.69
2023-05-10T04:10:55.001Z,12.77
2023-05-10T04:13:22.415Z,12.76
2023-05-10T04:15:49.592Z,12.69
2023-05-10T04:18:16.752Z,12.63
2023-05-10T04:20:43.796Z,12.48
2023-05-10T04:23:11.020Z,12.45
2023-05-10T04:25:38.071Z,12.40
2023-05-10T04:28:05.268Z,12.41
2023-05-10T04:30:32.440Z,12.34
2023-05-10T04:32:59.501Z,12.33
2023-05-10T04:35:27.103Z,12.36
2023-05-10T04:37:54.118Z,12.22
2023-05-10T04:40:21.347Z,12.28
2023-05-10T04:42:48.366Z,12.27
2023-05-10T04:45:18.498Z,12.31
2023-05-10T04:47:45.576Z,12.28
2023-05-10T04:50:12.649Z,12.28
2023-05-10T04:52:39.684Z,12.21
2023-05-10T04:55:08.912Z,12.12
2023-05-10T04:57:35.896Z,12.18
2023-05-10T05:00:03.150Z,12.22
2023-05-10T05:02:32.260Z,12.22
2023-05-10T05:04:59.436Z,12.26
2023-05-10T05:07:26.840Z,12.24
2023-05-10T05:09:53.895Z,12.28
2023-05-10T05:12:20.925Z,12.36
2023-05-10T05:14:47.950Z,12.31
2023-05-10T05:17:14.990Z,12.26
2023-05-10T05:19:41.978Z,12.33
2023-05-10T05:22:11.758Z,12.35
2023-05-10T05:24:39.096Z,12.37
2023-05-10T05:27:06.958Z,12.39
2023-05-10T05:29:34.144Z,12.43
2023-05-10T05:32:01.268Z,12.46
2023-05-10T05:34:28.641Z,12.52
2023-05-10T05:36:56.395Z,12.38
2023-05-10T05:39:23.496Z,12.43
2023-05-10T05:41:50.537Z,12.48
2023-05-10T05:44:17.529Z,12.47
2023-05-10T05:46:44.619Z,12.48
2023-05-10T05:49:11.620Z,12.46
2023-05-10T05:51:38.714Z,12.42
2023-05-10T05:54:05.769Z,12.41
2023-05-10T05:56:32.845Z,12.39
2023-05-10T05:58:59.869Z,12.35
2023-05-10T06:01:26.896Z,12.34
2023-05-10T06:03:54.262Z,12.31
2023-05-10T06:06:21.390Z,12.42
2023-05-10T06:08:48.529Z,12.34
2023-05-10T06:11:15.609Z,12.38
2023-05-10T06:13:43.360Z,12.42
2023-05-10T06:16:10.415Z,12.40
2023-05-10T06:18:37.451Z,12.41
2023-05-10T06:21:04.671Z,12.44
2023-05-10T06:23:31.696Z,12.54
2023-05-10T06:25:58.704Z,12.67
2023-05-10T06:28:25.850Z,12.85
2023-05-10T06:30:52.872Z,12.95
2023-05-10T06:33:19.921Z,12.88
2023-05-10T06:35:47.160Z,12.95
2023-05-10T06:38:14.158Z,12.93
2023-05-10T06:40:44.522Z,13.08
2023-05-10T06:43:11.615Z,13.14
2023-05-10T06:45:38.641Z,13.17
2023-05-10T06:48:05.943Z,13.30
2023-05-10T06:50:33.302Z,13.44
2023-05-10T06:53:00.762Z,13.55
2023-05-10T06:55:27.872Z,13.69
2023-05-10T06:57:54.998Z,13.83
2023-05-10T07:00:22.118Z,13.79
2023-05-10T07:02:49.578Z,13.83
2023-05-10T07:05:16.981Z,13.85
2023-05-10T07:07:44.272Z,13.93
2023-05-10T07:10:11.533Z,14.03
2023-05-10T07:12:39.184Z,13.91
2023-05-10T07:15:07.141Z,14.06
2023-05-10T07:17:37.030Z,14.26
2023-05-10T07:20:04.564Z,14.33
2023-05-10T07:22:31.676Z,14.40
2023-05-10T07:24:58.705Z,14.33
2023-05-10T07:27:26.064Z,14.42
2023-05-10T07:29:53.173Z,14.51
2023-05-10T07:32:20.305Z,14.52
2023-05-10T07:34:47.397Z,14.44
2023-05-10T07:37:14.505Z,14.36
2023-05-10T07:39:41.649Z,14.51
2023-05-10T07:42:09.394Z,14.66
2023-05-10T07:44:36.623Z,14.87
2023-05-10T07:47:03.775Z,14.92
2023-05-10T07:49:30.814Z,14.90
2023-05-10T07:51:57.861Z,14.76
2023-05-10T07:54:24.974Z,14.54
2023-05-10T07:56:52.264Z,14.52
2023-05-10T07:59:19.577Z,14.46
2023-05-10T08:01:46.607Z,14.44
2023-05-10T08:04:13.823Z,14.33
2023-05-10T08:06:41.335Z,14.02
2023-05-10T08:09:09.244Z,14.18
2023-05-10T08:11:36.428Z,14.09
2023-05-10T08:14:03.642Z,13.99
2023-05-10T08:16:30.868Z,13.97
2023-05-10T08:18:58.158Z,14.08
2023-05-10T08:21:25.479Z,14.18
2023-05-10T08:23:52.608Z,14.12
2023-05-10T08:26:19.760Z,14.28
2023-05-10T08:28:46.889Z,14.19
2023-05-10T08:31:13.969Z,14.27
2023-05-10T08:33:42.327Z,14.21
2023-05-10T08:36:10.930Z,14.26
2023-05-10T08:38:38.469Z,14.27
2023-05-10T08:41:06.348Z,14.35
2023-05-10T08:43:34.120Z,14.58
2023-05-10T08:46:01.778Z,14.89
2023-05-10T08:48:29.869Z,15.24
2023-05-10T08:50:58.909Z,15.37
2023-05-10T08:53:28.193Z,15.69
2023-05-10T08:55:56.464Z,15.62
2023-05-10T08:58:23.594Z,15.93
2023-05-10T09:00:52.445Z,16.09
2023-05-10T09:03:19.496Z,15.93
2023-05-10T09:05:47.039Z,16.33
2023-05-10T09:08:17.292Z,16.08
2023-05-10T09:10:45.078Z,16.01
2023-05-10T09:13:12.797Z,15.86
2023-05-10T09:15:39.959Z,16.16
2023-05-10T09:18:07.160Z,15.95
2023-05-10T09:20:34.262Z,16.27
2023-05-10T09:23:01.268Z,16.13
2023-05-10T09:25:28.372Z,15.94
2023-05-10T09:27:55.893Z,16.07
2023-05-10T09:30:27.359Z,15.94
2023-05-10T09:32:55.211Z,16.09
2023-05-10T09:35:25.089Z,16.07
2023-05-10T09:37:57.516Z,16.13
2023-05-10T09:40:25.625Z,16.46
2023-05-10T09:42:55.382Z,16.76
2023-05-10T09:45:23.518Z,16.94
2023-05-10T09:47:50.890Z,17.09
2023-05-10T09:50:18.142Z,16.88
2023-05-10T09:52:51.925Z,16.46
2023-05-10T09:55:20.821Z,16.60
2023-05-10T09:57:49.190Z,16.44
2023-05-10T10:00:20.588Z,16.47
2023-05-10T10:02:49.067Z,16.71
2023-05-10T10:05:16.395Z,16.70
2023-05-10T10:07:43.762Z,16.81
2023-05-10T10:10:13.245Z,16.58
2023-05-10T10:12:41.816Z,16.57
2023-05-10T10:15:09.880Z,16.48
2023-05-10T10:17:39.029Z,16.38
2023-05-10T10:20:06.802Z,16.45
2023-05-10T10:22:34.072Z,16.80
2023-05-10T10:25:01.453Z,16.89
2023-05-10T10:27:44.211Z,17.11
2023-05-10T10:30:14.361Z,17.07
2023-05-10T10:32:44.588Z,16.85
2023-05-10T10:35:11.870Z,16.58
2023-05-10T10:37:44.304Z,16.27
2023-05-10T10:40:28.411Z,16.20
2023-05-10T10:42:55.932Z,16.02
2023-05-10T10:45:23.640Z,16.04
2023-05-10T10:47:54.714Z,15.98
2023-05-10T10:50:21.814Z,15.93
2023-05-10T10:52:50.497Z,15.99
2023-05-10T10:55:24.169Z,16.17
2023-05-10T10:58:02.018Z,16.04
2023-05-10T11:00:31.469Z,16.00
2023-05-10T11:03:01.372Z,16.04
2023-05-10T11:05:28.408Z,16.17
2023-05-10T11:07:56.488Z,16.23
2023-05-10T11:10:23.940Z,16.33
2023-05-10T11:13:01.979Z,16.36
2023-05-10T11:15:32.674Z,16.54
2023-05-10T11:18:00.272Z,16.64
2023-05-10T11:20:39.459Z,16.61
2023-05-10T11:23:13.962Z,16.50
2023-05-10T11:25:45.025Z,16.49
2023-05-10T11:28:15.660Z,16.23
2023-05-10T11:30:44.714Z,15.90
2023-05-10T11:33:16.258Z,15.88
2023-05-10T11:35:43.814Z,15.80
2023-05-10T11:38:11.999Z,15.91
2023-05-10T11:40:39.667Z,15.77
2023-05-10T11:43:06.816Z,15.78
2023-05-10T11:45:34.171Z,15.91
2023-05-10T11:48:01.924Z,16.12
2023-05-10T11:50:29.295Z,16.01
2023-05-10T11:52:56.962Z,15.92
2023-05-10T11:55:25.246Z,16.03
2023-05-10T11:57:53.064Z,16.05
2023-05-10T12:00:20.861Z,16.11
2023-05-10T12:02:48.431Z,16.10
2023-05-10T12:05:15.799Z,16.10
2023-05-10T12:07:42.849Z,16.09
2023-05-10T12:10:16.507Z,16.00
2023-05-10T12:12:44.938Z,15.97
2023-05-10T12:15:25.249Z,16.02
2023-05-10T12:17:52.487Z,15.95
2023-05-10T12:20:21.093Z,15.82
2023-05-10T12:22:48.238Z,15.96
2023-05-10T12:25:15.380Z,15.93
2023-05-10T12:27:48.053Z,15.95
2023-05-10T12:30:19.620Z,15.90
2023-05-10T12:32:46.776Z,16.11
2023-05-10T12:35:13.812Z,16.22
2023-05-10T12:37:40.965Z,16.04
2023-05-10T12:40:09.160Z,16.03
2023-05-10T12:42:39.372Z,16.03
2023-05-10T12:45:07.118Z,16.16
2023-05-10T12:47:34.393Z,16.07
2023-05-10T12:50:02.283Z,15.55
2023-05-10T12:52:31.078Z,15.40
2023-05-10T12:54:58.088Z,15.33
2023-05-10T12:57:25.266Z,15.33
2023-05-10T12:59:52.284Z,15.30
2023-05-10T13:02:19.354Z,15.37
2023-05-10T13:04:48.824Z,15.46
2023-05-10T13:07:17.402Z,15.50
2023-05-10T13:09:44.493Z,15.28
2023-05-10T13:12:11.601Z,15.31
2023-05-10T13:14:38.815Z,15.35
2023-05-10T13:17:05.866Z,15.40
2023-05-10T13:19:32.974Z,15.37
2023-05-10T13:22:00.148Z,15.44
2023-05-10T13:24:27.208Z,15.41
2023-05-10T13:26:54.223Z,15.57
2023-05-10T13:29:22.007Z,15.70
2023-05-10T13:31:49.198Z,15.72
2023-05-10T13:34:16.572Z,15.85
2023-05-10T13:36:43.641Z,15.74
2023-05-10T13:39:10.667Z,15.82
2023-05-10T13:41:38.076Z,15.85
2023-05-10T13:44:05.114Z,15.86
2023-05-10T13:46:32.402Z,15.81
2023-05-10T13:48:59.597Z,15.79
2023-05-10T13:51:26.707Z,15.83
2023-05-10T13:53:53.789Z,15.88
2023-05-10T13:56:20.859Z,15.86
2023-05-10T13:58:48.455Z,15.84
2023-05-10T14:01:16.192Z,15.87
2023-05-10T14:03:43.400Z,15.88
2023-05-10T14:06:10.489Z,15.86
2023-05-10T14:08:37.635Z,15.97
2023-05-10T14:11:04.929Z,15.92
2023-05-10T14:13:32.276Z,16.02
2023-05-10T14:16:01.432Z,16.02
2023-05-10T14:18:29.638Z,15.89
2023-05-10T14:20:56.929Z,15.87
2023-05-10T14:23:27.309Z,16.01
2023-05-10T14:25:54.558Z,16.03
2023-05-10T14:28:23.252Z,15.99
2023-05-10T14:30:50.568Z,15.95
2023-05-10T14:33:17.754Z,16.09
2023-05-10T14:35:46.083Z,16.16
2023-05-10T14:38:13.489Z,16.16
2023-05-10T14:40:40.556Z,16.10
2023-05-10T14:43:07.552Z,16.16
2023-05-10T14:45:34.616Z,16.06
2023-05-10T14:48:02.106Z,16.06
2023-05-10T14:50:35.728Z,16.18
2023-05-10T14:53:03.991Z,16.20
2023-05-10T14:55:31.044Z,16.18
2023-05-10T14:57:59.289Z,16.17
2023-05-10T15:00:26.831Z,16.16
2023-05-10T15:02:54.331Z,16.18
2023-05-10T15:05:22.073Z,16.18
2023-05-10T15:07:49.623Z,16.18
2023-05-10T15:10:16.966Z,16.09
2023-05-10T15:12:43.995Z,16.01
2023-05-10T15:15:11.021Z,16.02
2023-05-10T15:17:38.111Z,15.88
2023-05-10T15:20:05.688Z,15.74
2023-05-10T15:22:34.265Z,15.44
2023-05-10T15:25:01.656Z,15.19
2023-05-10T15:27:29.315Z,15.13
2023-05-10T15:29:56.913Z,15.14
2023-05-10T15:32:23.968Z,14.99
2023-05-10T15:34:51.066Z,14.97
2023-05-10T15:37:18.107Z,15.25
2023-05-10T15:39:45.287Z,15.31
2023-05-10T15:42:12.932Z,15.49
2023-05-10T15:44:39.956Z,15.43
2023-05-10T15:47:07.166Z,15.41
2023-05-10T15:49:34.738Z,15.40
2023-05-10T15:52:01.977Z,15.35
2023-05-10T15:54:29.002Z,15.22
2023-05-10T15:56:56.081Z,15.20
2023-05-10T15:59:23.258Z,15.07
2023-05-10T16:01:51.110Z,15.11
2023-05-10T16:04:18.271Z,15.19
2023-05-10T16:06:45.324Z,15.19
2023-05-10T16:09:12.368Z,15.27
2023-05-10T16:11:39.424Z,15.27
2023-05-10T16:14:07.320Z,15.14
2023-05-10T16:16:34.693Z,14.62
2023-05-10T16:19:03.679Z,14.36
2023-05-10T16:21:34.393Z,14.03
2023-05-10T16:24:03.032Z,13.89
2023-05-10T16:26:30.036Z,13.67
2023-05-10T16:28:57.082Z,13.54
2023-05-10T16:31:24.434Z,13.46
2023-05-10T16:33:51.510Z,13.37
2023-05-10T16:36:18.551Z,13.39
2023-05-10T16:38:45.589Z,13.29
2023-05-10T16:41:12.680Z,13.35
2023-05-10T16:43:39.700Z,13.40
2023-05-10T16:46:10.325Z,13.32
2023-05-10T16:48:37.478Z,13.18
2023-05-10T16:51:04.635Z,13.04
2023-05-10T16:53:31.804Z,12.96
2023-05-10T16:55:58.871Z,12.93
2023-05-10T16:58:26.037Z,12.89
2023-05-10T17:00:53.090Z,12.81
2023-05-10T17:03:20.241Z,12.88
2023-05-10T17:05:47.353Z,12.97
2023-05-10T17:08:14.423Z,12.86
2023-05-10T17:10:41.562Z,12.76
2023-05-10T17:13:10.405Z,12.74
2023-05-10T17:15:38.512Z,12.74
2023-05-10T17:18:07.030Z,12.73
2023-05-10T17:20:34.396Z,12.85
2023-05-10T17:23:03.131Z,12.68
2023-05-10T17:25:30.264Z,12.79
2023-05-10T17:27:57.378Z,12.65
2023-05-10T17:30:27.435Z,12.61
2023-05-10T17:32:54.608Z,12.72
2023-05-10T17:35:21.764Z,12.79
2023-05-10T17:37:48.845Z,12.75
2023-05-10T17:40:15.978Z,12.74
2023-05-10T17:42:42.969Z,12.69
2023-05-10T17:45:10.451Z,12.77
2023-05-10T17:47:38.015Z,12.91
2023-05-10T17:50:05.656Z,12.85
2023-05-10T17:52:33.661Z,12.82
2023-05-10T17:55:00.931Z,12.96
2023-05-10T17:57:28.047Z,12.99
2023-05-10T17:59:55.060Z,12.87
2023-05-10T18:02:22.202Z,12.87
2023-05-10T18:04:49.388Z,12.87
2023-05-10T18:07:16.572Z,12.99
2023-05-10T18:09:43.611Z,13.02
2023-05-10T18:12:10.730Z,13.00
2023-05-10T18:14:40.918Z,12.82
2023-05-10T18:17:09.621Z,12.93
2023-05-10T18:19:36.897Z,12.96
2023-05-10T18:22:04.191Z,13.01
2023-05-10T18:24:38.860Z,12.98
2023-05-10T18:27:08.702Z,12.98
2023-05-10T18:29:36.971Z,12.99
2023-05-10T18:32:04.337Z,12.98
2023-05-10T18:34:31.395Z,12.97
2023-05-10T18:36:59.126Z,12.93
2023-05-10T18:39:26.302Z,12.85
2023-05-10T18:41:53.504Z,12.80
2023-05-10T18:44:21.940Z,12.64
2023-05-10T18:46:49.049Z,12.75
2023-05-10T18:49:16.324Z,12.78
2023-05-10T18:51:43.584Z,12.80
2023-05-10T18:54:10.669Z,12.77
2023-05-10T18:56:44.360Z,12.70
2023-05-10T18:59:11.765Z,12.57
2023-05-10T19:01:40.412Z,12.64
2023-05-10T19:04:08.888Z,12.63
2023-05-10T19:06:36.268Z,12.63
2023-05-10T19:09:03.444Z,12.56
2023-05-10T19:11:32.851Z,12.31
2023-05-10T19:14:00.453Z,12.44
2023-05-10T19:16:30.552Z,12.40
2023-05-10T19:18:58.016Z,12.35
2023-05-10T19:21:25.826Z,12.34
2023-05-10T19:23:53.624Z,12.24
2023-05-10T19:26:21.081Z,12.19
2023-05-10T19:28:50.149Z,12.07
2023-05-10T19:31:17.248Z,12.05
2023-05-10T19:33:44.348Z,11.99
2023-05-10T19:36:11.388Z,12.05
2023-05-10T19:38:38.496Z,12.14
2023-05-10T19:41:05.744Z,12.20
2023-05-10T19:43:37.959Z,12.05
2023-05-10T19:46:05.416Z,11.89
2023-05-10T19:48:32.572Z,11.94
2023-05-10T19:51:00.826Z,11.92
2023-05-10T19:53:28.018Z,12.03
2023-05-10T19:55:56.092Z,12.17
2023-05-10T19:58:23.454Z,12.20
2023-05-10T20:00:50.510Z,12.22
2023-05-10T20:03:17.685Z,12.12
2023-05-10T20:05:44.791Z,12.16
2023-05-10T20:08:11.914Z,12.08
2023-05-10T20:10:39.128Z,12.21
2023-05-10T20:13:06.251Z,12.21
2023-05-10T20:15:33.529Z,12.21
2023-05-10T20:18:00.655Z,12.00
2023-05-10T20:20:27.918Z,12.08
2023-05-10T20:22:55.280Z,12.08
2023-05-10T20:25:22.431Z,12.18
2023-05-10T20:27:50.932Z,12.08
2023-05-10T20:30:18.276Z,12.17
2023-05-10T20:32:45.617Z,12.17
2023-05-10T20:35:12.786Z,12.18
2023-05-10T20:37:40.003Z,12.15
2023-05-10T20:40:07.852Z,12.18
2023-05-10T20:42:34.914Z,12.18
2023-05-10T20:45:01.998Z,12.19
2023-05-10T20:47:29.578Z,12.08
2023-05-10T20:49:56.673Z,11.93
2023-05-10T20:52:24.684Z,11.84
2023-05-10T20:54:51.748Z,11.92
2023-05-10T20:57:18.786Z,12.02
2023-05-10T20:59:45.816Z,12.05
2023-05-10T21:02:12.813Z,12.08
2023-05-10T21:04:39.910Z,12.06
2023-05-10T21:07:08.681Z,12.05
2023-05-10T21:09:35.861Z,12.02
2023-05-10T21:12:03.388Z,12.00
2023-05-10T21:14:31.071Z,11.93
2023-05-10T21:16:58.133Z,11.97
2023-05-10T21:19:25.199Z,11.88
2023-05-10T21:21:52.387Z,11.88
2023-05-10T21:24:19.397Z,11.94
2023-05-10T21:26:46.465Z,11.98
2023-05-10T21:29:13.761Z,11.97
2023-05-10T21:31:40.921Z,11.96
2023-05-10T21:34:08.082Z,11.93
2023-05-10T21:36:35.173Z,11.88
2023-05-10T21:39:02.157Z,11.90
2023-05-10T21:41:29.189Z,11.89
2023-05-10T21:43:56.510Z,11.90
2023-05-10T21:46:23.617Z,11.91
2023-05-10T21:48:50.864Z,11.81
2023-05-10T21:51:17.908Z,11.80
2023-05-10T21:53:44.956Z,11.81
2023-05-10T21:56:12.094Z,11.81
2023-05-10T21:58:39.144Z,11.79
2023-05-10T22:01:06.232Z,11.79
2023-05-10T22:03:33.346Z,11.81
2023-05-10T22:06:00.592Z,11.80
2023-05-10T22:08:27.660Z,11.82
2023-05-10T22:10:54.702Z,11.82
2023-05-10T22:13:21.702Z,11.67
2023-05-10T22:15:48.785Z,11.68
2023-05-10T22:18:15.934Z,11.71
2023-05-10T22:20:46.454Z,11.74
2023-05-10T22:23:13.979Z,11.73
2023-05-10T22:25:41.063Z,11.70
2023-05-10T22:28:08.571Z,11.68
2023-05-10T22:30:35.646Z,11.69
2023-05-10T22:33:02.778Z,11.68
2023-05-10T22:35:29.988Z,11.57
2023-05-10T22:37:57.024Z,11.60
2023-05-10T22:40:24.071Z,11.59
2023-05-10T22:42:51.108Z,11.36
2023-05-10T22:45:18.144Z,11.36
2023-05-10T22:47:45.222Z,11.41
2023-05-10T22:50:13.956Z,11.32
2023-05-10T22:52:41.257Z,11.16
2023-05-10T22:55:08.418Z,11.31
2023-05-10T22:57:35.802Z,11.37
2023-05-10T23:00:04.413Z,11.41
2023-05-10T23:02:32.039Z,11.38
2023-05-10T23:04:59.141Z,11.45
2023-05-10T23:07:26.284Z,11.44
2023-05-10T23:09:53.303Z,11.47
2023-05-10T23:12:20.344Z,11.45
2023-05-10T23:14:47.651Z,11.43
2023-05-10T23:17:14.760Z,11.44
2023-05-10T23:19:41.940Z,11.41
2023-05-10T23:22:09.856Z,11.40
2023-05-10T23:24:36.935Z,11.45
2023-05-10T23:27:04.062Z,11.44
2023-05-10T23:29:32.452Z,11.44
2023-05-10T23:31:59.506Z,11.45
2023-05-10T23:34:26.558Z,11.43
2023-05-10T23:36:53.604Z,11.41
2023-05-10T23:39:20.771Z,11.38
2023-05-10T23:41:47.977Z,11.26
2023-05-10T23:44:15.049Z,11.09
2023-05-10T23:46:42.064Z,11.12
2023-05-10T23:49:09.058Z,11.21
2023-05-10T23:51:36.104Z,11.26
2023-05-10T23:54:03.400Z,11.27
2023-05-10T23:56:30.455Z,11.14
2023-05-10T23:58:57.477Z,11.13
